createdAt,value
2018-08-25T00:00:58.391Z,3.20
2018-08-25T00:03:25.331Z,2.70
2018-08-25T00:05:53.947Z,3.00
2018-08-25T00:08:20.926Z,2.70
2018-08-25T00:10:48.597Z,2.90
2018-08-25T00:13:15.532Z,3.00
2018-08-25T00:15:44.547Z,3.00
2018-08-25T00:18:11.496Z,2.43
2018-08-25T00:20:39.084Z,2.90
2018-08-25T00:23:06.216Z,2.90
2018-08-25T00:25:36.187Z,2.30
2018-08-25T00:28:03.139Z,2.80
2018-08-25T00:30:35.863Z,2.43
2018-08-25T00:33:02.776Z,2.37
2018-08-25T00:35:29.762Z,2.70
2018-08-25T00:37:56.688Z,2.50
2018-08-25T00:40:24.747Z,2.57
2018-08-25T00:42:51.760Z,2.60
2018-08-25T00:45:18.708Z,2.40
2018-08-25T00:47:46.543Z,2.40
2018-08-25T00:50:13.419Z,2.20
2018-08-25T00:52:40.475Z,2.53
2018-08-25T00:55:07.398Z,2.30
2018-08-25T00:57:34.395Z,2.13
2018-08-25T01:00:01.968Z,2.77
2018-08-25T01:02:29.076Z,2.40
2018-08-25T01:04:56.632Z,2.17
2018-08-25T01:07:23.500Z,2.70
2018-08-25T01:09:50.427Z,2.60
2018-08-25T01:12:17.386Z,2.77
2018-08-25T01:14:44.352Z,2.17
2018-08-25T01:17:11.301Z,2.63
2018-08-25T01:19:38.261Z,2.00
2018-08-25T01:22:05.202Z,1.97
2018-08-25T01:24:32.175Z,2.07
2018-08-25T01:26:59.949Z,2.03
2018-08-25T01:29:27.559Z,2.33
2018-08-25T01:31:54.482Z,2.40
2018-08-25T01:34:21.420Z,2.50
2018-08-25T01:36:48.408Z,2.20
2018-08-25T01:39:16.353Z,2.23
2018-08-25T01:41:43.371Z,1.90
2018-08-25T01:44:10.396Z,2.33
2018-08-25T01:46:37.339Z,2.30
2018-08-25T01:49:04.283Z,2.27
2018-08-25T01:51:31.308Z,2.50
2018-08-25T01:53:58.434Z,2.40
2018-08-25T01:56:25.403Z,2.17
2018-08-25T01:58:52.286Z,2.13
2018-08-25T02:01:22.283Z,2.10
2018-08-25T02:03:49.220Z,2.70
2018-08-25T02:06:16.208Z,2.10
2018-08-25T02:08:43.204Z,2.37
2018-08-25T02:11:11.043Z,2.63
2018-08-25T02:13:37.966Z,2.23
2018-08-25T02:16:05.416Z,2.20
2018-08-25T02:18:32.391Z,2.37
2018-08-25T02:21:00.036Z,2.50
2018-08-25T02:23:27.015Z,1.93
2018-08-25T02:25:53.971Z,2.40
2018-08-25T02:28:21.050Z,2.00
2018-08-25T02:30:47.883Z,2.00
2018-08-25T02:33:14.901Z,2.20
2018-08-25T02:35:41.802Z,2.30
2018-08-25T02:38:08.759Z,2.20
2018-08-25T02:40:35.719Z,2.40
2018-08-25T02:43:02.693Z,2.23
2018-08-25T02:45:29.664Z,3.03
2018-08-25T02:47:56.620Z,3.00
2018-08-25T02:50:23.845Z,3.30
2018-08-25T02:52:50.878Z,2.93
2018-08-25T02:55:17.845Z,2.40
2018-08-25T02:57:45.551Z,2.80
2018-08-25T03:00:12.548Z,3.30
2018-08-25T03:02:39.471Z,2.90
2018-08-25T03:05:06.420Z,2.70
2018-08-25T03:07:33.385Z,3.20
2018-08-25T03:10:00.377Z,3.40
2018-08-25T03:12:27.671Z,2.20
2018-08-25T03:14:55.607Z,2.60
2018-08-25T03:17:22.584Z,2.57
2018-08-25T03:19:49.476Z,2.80
2018-08-25T03:22:16.467Z,2.90
2018-08-25T03:24:46.123Z,3.30
2018-08-25T03:27:14.088Z,3.07
2018-08-25T03:29:41.000Z,3.30
2018-08-25T03:32:07.898Z,3.00
2018-08-25T03:34:34.832Z,3.17
2018-08-25T03:37:01.802Z,2.77
2018-08-25T03:39:28.771Z,3.00
2018-08-25T03:41:55.723Z,2.50
2018-08-25T03:44:23.596Z,2.90
2018-08-25T03:46:50.567Z,3.10
2018-08-25T03:49:17.499Z,3.27
2018-08-25T03:51:45.053Z,3.47
2018-08-25T03:54:12.023Z,2.60
2018-08-25T03:56:41.963Z,2.63
2018-08-25T03:59:08.975Z,2.97
2018-08-25T04:01:37.101Z,3.47
2018-08-25T04:04:03.930Z,3.63
2018-08-25T04:06:30.923Z,3.37
2018-08-25T04:08:57.864Z,3.30
2018-08-25T04:11:24.843Z,3.20
2018-08-25T04:13:51.774Z,3.20
2018-08-25T04:16:18.735Z,2.80
2018-08-25T04:18:45.707Z,3.00
2018-08-25T04:21:12.648Z,3.20
2018-08-25T04:23:39.591Z,3.03
2018-08-25T04:26:07.111Z,3.27
2018-08-25T04:28:34.578Z,3.10
2018-08-25T04:31:01.552Z,3.43
2018-08-25T04:33:29.168Z,3.17
2018-08-25T04:35:56.056Z,4.53
2018-08-25T04:38:23.005Z,3.70
2018-08-25T04:40:49.947Z,3.77
2018-08-25T04:43:16.899Z,3.50
2018-08-25T04:45:43.839Z,3.67
2018-08-25T04:48:11.859Z,4.17
2018-08-25T04:50:38.808Z,3.70
2018-08-25T04:53:05.760Z,3.70
2018-08-25T04:55:32.682Z,3.30
2018-08-25T04:57:59.698Z,3.70
2018-08-25T05:00:26.643Z,3.40
2018-08-25T05:02:53.599Z,3.50
2018-08-25T05:05:20.583Z,3.33
2018-08-25T05:07:47.524Z,3.20
2018-08-25T05:10:14.406Z,3.53
2018-08-25T05:12:41.344Z,3.50
2018-08-25T05:15:08.279Z,3.53
2018-08-25T05:17:35.276Z,3.97
2018-08-25T05:20:02.110Z,3.23
2018-08-25T05:22:29.023Z,2.97
2018-08-25T05:24:56.004Z,3.83
2018-08-25T05:27:22.959Z,3.80
2018-08-25T05:29:49.899Z,3.50
2018-08-25T05:32:18.617Z,4.50
2018-08-25T05:34:47.119Z,3.20
2018-08-25T05:37:14.071Z,3.30
2018-08-25T05:39:40.997Z,4.50
2018-08-25T05:42:07.979Z,4.00
2018-08-25T05:44:34.946Z,3.60
2018-08-25T05:47:02.087Z,4.13
2018-08-25T05:49:30.045Z,4.60
2018-08-25T05:51:57.057Z,4.40
2018-08-25T05:54:24.004Z,3.70
2018-08-25T05:56:51.027Z,4.57
2018-08-25T05:59:18.037Z,4.23
2018-08-25T06:01:44.986Z,4.70
2018-08-25T06:04:12.958Z,3.60
2018-08-25T06:06:42.696Z,4.00
2018-08-25T06:09:11.463Z,3.80
2018-08-25T06:11:38.483Z,3.87
2018-08-25T06:14:05.420Z,3.67
2018-08-25T06:16:32.351Z,4.57
2018-08-25T06:18:59.323Z,3.80
2018-08-25T06:21:26.241Z,3.43
2018-08-25T06:23:53.319Z,3.40
2018-08-25T06:26:20.280Z,3.53
2018-08-25T06:28:47.246Z,3.70
2018-08-25T06:31:14.168Z,3.90
2018-08-25T06:33:41.126Z,3.50
2018-08-25T06:36:08.278Z,3.67
2018-08-25T06:38:35.127Z,3.50
2018-08-25T06:41:02.012Z,3.50
2018-08-25T06:43:29.041Z,4.23
2018-08-25T06:46:14.284Z,3.47
2018-08-25T06:48:41.211Z,2.80
2018-08-25T06:51:08.675Z,4.03
2018-08-25T06:53:37.734Z,4.40
2018-08-25T06:56:04.807Z,3.37
2018-08-25T06:58:31.748Z,3.37
2018-08-25T07:00:58.680Z,3.10
2018-08-25T07:03:25.663Z,3.10
2018-08-25T07:05:56.439Z,2.80
2018-08-25T07:08:23.363Z,3.20
2018-08-25T07:10:51.323Z,3.30
2018-08-25T07:13:19.188Z,3.17
2018-08-25T07:15:46.173Z,3.03
2018-08-25T07:18:13.134Z,2.73
2018-08-25T07:20:40.182Z,2.80
2018-08-25T07:23:08.694Z,4.00
2018-08-25T07:25:37.192Z,3.97
2018-08-25T07:28:04.239Z,3.63
2018-08-25T07:30:31.228Z,3.60
2018-08-25T07:32:58.258Z,2.97
2018-08-25T07:35:25.180Z,2.50
2018-08-25T07:37:52.167Z,2.87
2018-08-25T07:40:19.120Z,2.70
2018-08-25T07:42:46.071Z,2.77
2018-08-25T07:45:13.081Z,4.60
2018-08-25T07:47:39.951Z,2.93
2018-08-25T07:50:07.556Z,2.77
2018-08-25T07:52:34.763Z,2.87
2018-08-25T07:55:01.688Z,2.87
2018-08-25T07:57:28.623Z,2.77
2018-08-25T07:59:55.593Z,1.93
2018-08-25T08:02:22.555Z,1.93
2018-08-25T08:04:49.535Z,1.77
2018-08-25T08:07:16.358Z,2.00
2018-08-25T08:09:43.337Z,2.10
2018-08-25T08:12:10.370Z,1.90
2018-08-25T08:14:39.291Z,2.00
2018-08-25T08:17:08.231Z,3.07
2018-08-25T08:19:35.140Z,1.60
2018-08-25T08:22:03.840Z,2.33
2018-08-25T08:24:30.771Z,2.13
2018-08-25T08:26:58.276Z,1.83
2018-08-25T08:29:26.271Z,2.50
2018-08-25T08:31:53.216Z,1.30
2018-08-25T08:34:21.255Z,1.50
2018-08-25T08:36:48.296Z,1.50
2018-08-25T08:39:15.188Z,1.37
2018-08-25T08:41:42.194Z,1.70
2018-08-25T08:44:09.167Z,1.60
2018-08-25T08:46:36.806Z,1.57
2018-08-25T08:49:05.392Z,1.90
2018-08-25T08:51:32.944Z,1.90
2018-08-25T08:54:00.211Z,1.97
2018-08-25T08:56:27.195Z,1.90
2018-08-25T08:58:54.212Z,1.67
2018-08-25T09:01:21.256Z,1.60
2018-08-25T09:03:48.286Z,1.90
2018-08-25T09:06:15.223Z,2.20
2018-08-25T09:08:42.153Z,1.70
2018-08-25T09:11:09.755Z,1.93
2018-08-25T09:13:36.719Z,2.13
2018-08-25T09:16:04.343Z,1.60
2018-08-25T09:18:31.343Z,1.97
2018-08-25T09:20:58.323Z,1.43
2018-08-25T09:23:25.230Z,2.10
2018-08-25T09:25:52.223Z,2.27
2018-08-25T09:28:19.164Z,1.50
2018-08-25T09:30:46.146Z,1.77
2018-08-25T09:33:13.124Z,2.13
2018-08-25T09:35:40.082Z,1.80
2018-08-25T09:38:07.092Z,1.83
2018-08-25T09:40:34.071Z,2.40
2018-08-25T09:43:01.044Z,1.73
2018-08-25T09:45:27.959Z,1.83
2018-08-25T09:47:54.947Z,2.10
2018-08-25T09:50:21.904Z,2.10
2018-08-25T09:52:48.856Z,2.10
2018-08-25T09:55:15.826Z,1.90
2018-08-25T09:57:42.771Z,1.90
2018-08-25T10:00:10.505Z,2.03
2018-08-25T10:02:37.515Z,1.80
2018-08-25T10:05:05.660Z,1.80
2018-08-25T10:07:32.628Z,1.70
2018-08-25T10:09:59.584Z,2.07
2018-08-25T10:12:26.569Z,2.00
2018-08-25T10:14:55.276Z,2.17
2018-08-25T10:17:22.252Z,1.80
2018-08-25T10:19:49.189Z,1.63
2018-08-25T10:22:17.151Z,1.77
2018-08-25T10:24:45.747Z,1.90
2018-08-25T10:27:12.826Z,1.90
2018-08-25T10:29:39.792Z,1.57
2018-08-25T10:32:06.759Z,1.60
2018-08-25T10:34:33.678Z,2.10
2018-08-25T10:37:00.634Z,1.60
2018-08-25T10:39:27.600Z,1.60
2018-08-25T10:41:54.633Z,1.80
2018-08-25T10:44:21.538Z,1.73
2018-08-25T10:46:48.475Z,1.60
2018-08-25T10:49:15.443Z,3.07
2018-08-25T10:51:42.422Z,1.93
2018-08-25T10:54:09.403Z,1.93
2018-08-25T10:56:36.328Z,1.67
2018-08-25T10:59:03.256Z,1.90
2018-08-25T11:01:31.264Z,1.93
2018-08-25T11:03:58.792Z,1.40
2018-08-25T11:06:25.827Z,1.53
2018-08-25T11:08:53.406Z,1.50
2018-08-25T11:11:20.863Z,1.70
2018-08-25T11:13:47.735Z,1.30
2018-08-25T11:16:14.819Z,1.57
2018-08-25T11:18:42.731Z,1.23
2018-08-25T11:21:09.731Z,1.73
2018-08-25T11:23:36.780Z,1.93
2018-08-25T11:26:04.269Z,2.03
2018-08-25T11:28:31.363Z,2.13
2018-08-25T11:30:58.315Z,1.93
2018-08-25T11:33:26.950Z,1.57
2018-08-25T11:35:53.887Z,1.47
2018-08-25T11:38:20.847Z,1.57
2018-08-25T11:40:48.756Z,1.70
2018-08-25T11:43:16.702Z,1.70
2018-08-25T11:45:44.363Z,1.47
2018-08-25T11:48:11.342Z,1.30
2018-08-25T11:50:38.319Z,1.13
2018-08-25T11:53:05.236Z,1.50
2018-08-25T11:55:32.187Z,1.70
2018-08-25T11:57:59.168Z,1.50
2018-08-25T12:00:26.124Z,1.57
2018-08-25T12:02:53.067Z,1.80
2018-08-25T12:05:20.019Z,1.60
2018-08-25T12:07:47.003Z,1.90
2018-08-25T12:10:14.911Z,1.80
2018-08-25T12:12:42.854Z,1.63
2018-08-25T12:15:09.843Z,1.70
2018-08-25T12:17:37.367Z,1.90
2018-08-25T12:20:04.768Z,1.90
2018-08-25T12:22:31.699Z,1.80
2018-08-25T12:24:58.643Z,1.30
2018-08-25T12:27:25.599Z,1.30
2018-08-25T12:29:52.551Z,1.30
2018-08-25T12:32:19.543Z,1.00
2018-08-25T12:34:46.461Z,0.97
2018-08-25T12:37:13.436Z,1.30
2018-08-25T12:39:40.400Z,1.00
2018-08-25T12:42:07.360Z,0.90
2018-08-25T12:44:34.306Z,1.13
2018-08-25T12:47:01.861Z,1.13
2018-08-25T12:49:29.884Z,1.00
2018-08-25T12:51:56.836Z,0.90
2018-08-25T12:54:23.793Z,1.10
2018-08-25T12:56:50.736Z,0.90
2018-08-25T12:59:17.778Z,1.07
2018-08-25T13:01:45.404Z,0.90
2018-08-25T13:04:12.347Z,0.80
2018-08-25T13:06:39.348Z,1.00
2018-08-25T13:09:07.419Z,0.90
2018-08-25T13:11:35.920Z,0.80
2018-08-25T13:14:02.951Z,1.00
2018-08-25T13:16:29.895Z,0.90
2018-08-25T13:18:56.837Z,1.10
2018-08-25T13:21:23.811Z,1.03
2018-08-25T13:23:52.407Z,1.00
2018-08-25T13:26:19.326Z,1.00
2018-08-25T13:28:49.584Z,1.00
2018-08-25T13:31:17.516Z,0.83
2018-08-25T13:33:44.443Z,0.90
2018-08-25T13:36:11.499Z,0.90
2018-08-25T13:38:38.464Z,1.00
2018-08-25T13:41:05.396Z,0.93
2018-08-25T13:43:32.428Z,0.70
2018-08-25T13:45:59.327Z,0.90
2018-08-25T13:48:26.283Z,0.80
2018-08-25T13:50:53.332Z,0.90
2018-08-25T13:53:20.348Z,0.70
2018-08-25T13:55:47.955Z,1.20
2018-08-25T13:58:14.926Z,1.03
2018-08-25T14:00:41.909Z,0.90
2018-08-25T14:03:08.855Z,1.10
2018-08-25T14:05:35.830Z,1.10
2018-08-25T14:08:02.801Z,0.80
2018-08-25T14:10:30.444Z,0.90
2018-08-25T14:12:57.994Z,1.00
2018-08-25T14:15:24.951Z,1.10
2018-08-25T14:17:52.488Z,0.90
2018-08-25T14:20:19.513Z,0.90
2018-08-25T14:22:46.429Z,1.20
2018-08-25T14:25:13.411Z,0.97
2018-08-25T14:27:40.432Z,0.90
2018-08-25T14:30:08.423Z,1.03
2018-08-25T14:32:35.395Z,1.00
2018-08-25T14:35:02.948Z,0.80
2018-08-25T14:37:29.933Z,1.40
2018-08-25T14:40:00.482Z,1.00
2018-08-25T14:42:27.396Z,1.30
2018-08-25T14:44:54.299Z,0.80
2018-08-25T14:47:21.254Z,0.93
2018-08-25T14:49:48.262Z,0.90
2018-08-25T14:52:16.373Z,1.07
2018-08-25T14:54:46.296Z,1.27
2018-08-25T14:57:13.264Z,1.10
2018-08-25T14:59:40.263Z,0.83
2018-08-25T15:02:07.167Z,1.10
2018-08-25T15:04:34.159Z,1.03
2018-08-25T15:07:01.059Z,1.13
2018-08-25T15:09:28.964Z,0.93
2018-08-25T15:11:55.954Z,1.03
2018-08-25T15:14:22.894Z,1.20
2018-08-25T15:16:49.859Z,0.90
2018-08-25T15:19:16.815Z,1.00
2018-08-25T15:21:43.767Z,1.13
2018-08-25T15:24:13.394Z,1.47
2018-08-25T15:26:40.300Z,0.90
2018-08-25T15:29:07.254Z,1.10
2018-08-25T15:31:34.248Z,1.30
2018-08-25T15:34:02.976Z,1.00
2018-08-25T15:36:29.925Z,1.30
2018-08-25T15:38:58.512Z,1.13
2018-08-25T15:41:25.504Z,1.27
2018-08-25T15:43:52.393Z,0.83
2018-08-25T15:46:19.347Z,1.10
2018-08-25T15:48:47.288Z,1.10
2018-08-25T15:51:14.175Z,1.00
2018-08-25T15:53:41.159Z,0.93
2018-08-25T15:56:08.120Z,1.00
2018-08-25T15:58:35.076Z,1.00
2018-08-25T16:01:02.006Z,1.00
2018-08-25T16:03:29.037Z,1.03
2018-08-25T16:05:56.040Z,1.07
2018-08-25T16:08:23.026Z,1.00
2018-08-25T16:10:50.471Z,1.17
2018-08-25T16:13:17.452Z,1.13
2018-08-25T16:15:44.395Z,1.20
2018-08-25T16:18:11.372Z,1.07
2018-08-25T16:20:38.316Z,1.20
2018-08-25T16:23:05.228Z,0.80
2018-08-25T16:25:33.254Z,1.10
2018-08-25T16:28:00.207Z,1.13
2018-08-25T16:30:28.191Z,0.93
2018-08-25T16:32:55.168Z,1.03
2018-08-25T16:35:22.071Z,0.83
2018-08-25T16:37:49.038Z,0.87
2018-08-25T16:40:16.037Z,1.10
2018-08-25T16:42:43.057Z,0.90
2018-08-25T16:45:10.010Z,1.00
2018-08-25T16:47:36.995Z,1.30
2018-08-25T16:50:03.935Z,1.00
2018-08-25T16:52:30.800Z,1.03
2018-08-25T16:54:57.734Z,0.87
2018-08-25T16:57:24.716Z,1.07
2018-08-25T16:59:51.671Z,1.00
2018-08-25T17:02:18.640Z,0.80
2018-08-25T17:04:45.572Z,0.97
2018-08-25T17:07:12.511Z,0.90
2018-08-25T17:09:39.494Z,1.20
2018-08-25T17:12:06.428Z,1.00
2018-08-25T17:14:34.461Z,1.00
2018-08-25T17:17:01.440Z,0.97
2018-08-25T17:19:28.383Z,1.03
2018-08-25T17:21:57.096Z,0.90
2018-08-25T17:24:25.519Z,0.90
2018-08-25T17:26:52.514Z,1.07
2018-08-25T17:29:20.079Z,1.20
2018-08-25T17:31:47.045Z,0.90
2018-08-25T17:34:14.068Z,1.00
2018-08-25T17:36:41.060Z,1.00
2018-08-25T17:39:10.508Z,1.20
2018-08-25T17:41:38.200Z,1.00
2018-08-25T17:44:07.154Z,0.90
2018-08-25T17:46:35.008Z,1.30
2018-08-25T17:49:05.295Z,1.00
2018-08-25T17:51:33.052Z,1.00
2018-08-25T17:53:59.999Z,1.10
2018-08-25T17:56:26.920Z,1.23
2018-08-25T17:58:54.532Z,1.30
2018-08-25T18:01:22.531Z,1.20
2018-08-25T18:03:53.584Z,0.70
2018-08-25T18:06:21.440Z,1.10
2018-08-25T18:08:48.383Z,0.90
2018-08-25T18:11:15.535Z,1.33
2018-08-25T18:13:42.333Z,1.10
2018-08-25T18:16:09.495Z,1.00
2018-08-25T18:18:37.072Z,1.40
2018-08-25T18:21:04.015Z,1.00
2018-08-25T18:23:31.045Z,1.00
2018-08-25T18:25:58.080Z,1.20
2018-08-25T18:28:25.375Z,1.10
2018-08-25T18:30:53.064Z,1.10
2018-08-25T18:33:21.047Z,1.10
2018-08-25T18:35:49.055Z,1.10
2018-08-25T18:38:17.020Z,1.33
2018-08-25T18:40:43.989Z,1.20
2018-08-25T18:43:10.931Z,1.47
2018-08-25T18:45:39.928Z,1.10
2018-08-25T18:48:06.938Z,1.20
2018-08-25T18:50:33.848Z,1.20
2018-08-25T18:53:00.827Z,1.40
2018-08-25T18:55:28.607Z,1.30
2018-08-25T18:57:55.556Z,1.37
2018-08-25T19:00:22.496Z,1.13
2018-08-25T19:02:49.454Z,1.30
2018-08-25T19:05:16.435Z,1.20
2018-08-25T19:07:43.395Z,1.50
2018-08-25T19:10:10.348Z,1.50
2018-08-25T19:12:37.302Z,1.80
2018-08-25T19:15:04.247Z,1.47
2018-08-25T19:17:32.215Z,1.50
2018-08-25T19:19:59.179Z,1.37
2018-08-25T19:22:26.156Z,1.77
2018-08-25T19:24:54.116Z,1.30
2018-08-25T19:27:21.083Z,1.97
2018-08-25T19:29:48.125Z,1.37
2018-08-25T19:32:15.004Z,1.40
2018-08-25T19:34:41.942Z,1.30
2018-08-25T19:37:08.863Z,1.50
2018-08-25T19:39:35.829Z,1.47
2018-08-25T19:42:02.831Z,1.30
2018-08-25T19:44:30.539Z,1.50
2018-08-25T19:46:57.492Z,1.70
2018-08-25T19:49:24.371Z,1.20
2018-08-25T19:51:51.376Z,1.27
2018-08-25T19:54:18.331Z,1.80
2018-08-25T19:56:45.284Z,1.50
2018-08-25T19:59:12.218Z,1.57
2018-08-25T20:01:40.242Z,1.50
2018-08-25T20:04:07.176Z,1.47
2018-08-25T20:06:34.152Z,1.23
2018-08-25T20:09:01.088Z,1.43
2018-08-25T20:11:28.044Z,1.80
2018-08-25T20:13:55.016Z,1.20
2018-08-25T20:16:21.927Z,1.50
2018-08-25T20:18:48.902Z,1.67
2018-08-25T20:21:15.874Z,1.60
2018-08-25T20:23:42.842Z,1.40
2018-08-25T20:26:09.832Z,1.73
2018-08-25T20:28:36.751Z,1.70
2018-08-25T20:31:03.703Z,1.60
2018-08-25T20:33:30.667Z,1.70
2018-08-25T20:35:58.272Z,1.50
2018-08-25T20:38:28.775Z,1.70
2018-08-25T20:40:55.828Z,1.70
2018-08-25T20:43:23.595Z,1.57
2018-08-25T20:45:50.775Z,1.60
2018-08-25T20:48:17.643Z,1.70
2018-08-25T20:50:44.611Z,1.80
2018-08-25T20:53:11.538Z,1.77
2018-08-25T20:55:38.503Z,1.67
2018-08-25T20:58:07.520Z,1.40
2018-08-25T21:00:34.468Z,1.60
2018-08-25T21:03:01.436Z,1.73
2018-08-25T21:05:28.360Z,1.50
2018-08-25T21:07:55.359Z,2.03
2018-08-25T21:10:22.311Z,1.70
2018-08-25T21:12:50.294Z,1.93
2018-08-25T21:15:17.223Z,1.90
2018-08-25T21:17:45.245Z,1.70
2018-08-25T21:20:12.179Z,1.90
2018-08-25T21:22:39.136Z,1.67
2018-08-25T21:25:06.222Z,1.47
2018-08-25T21:27:33.120Z,2.00
2018-08-25T21:30:00.124Z,1.70
2018-08-25T21:32:27.083Z,1.60
2018-08-25T21:34:54.031Z,1.83
2018-08-25T21:37:21.007Z,1.93
2018-08-25T21:39:48.007Z,1.47
2018-08-25T21:42:15.019Z,1.90
2018-08-25T21:44:45.541Z,2.03
2018-08-25T21:47:12.526Z,1.40
2018-08-25T21:49:39.478Z,1.80
2018-08-25T21:52:07.143Z,1.53
2018-08-25T21:54:34.710Z,1.67
2018-08-25T21:57:02.289Z,1.87
2018-08-25T21:59:29.259Z,1.60
2018-08-25T22:01:57.807Z,2.10
2018-08-25T22:04:25.407Z,2.17
2018-08-25T22:06:52.431Z,2.00
2018-08-25T22:09:20.235Z,1.60
2018-08-25T22:11:47.167Z,1.90
2018-08-25T22:14:14.139Z,2.10
2018-08-25T22:16:41.132Z,1.60
2018-08-25T22:19:08.695Z,2.07
2018-08-25T22:21:35.641Z,1.80
2018-08-25T22:24:03.199Z,1.87
2018-08-25T22:26:30.695Z,1.53
2018-08-25T22:28:58.247Z,1.70
2018-08-25T22:31:26.342Z,1.70
2018-08-25T22:33:53.296Z,1.80
2018-08-25T22:36:20.289Z,1.70
2018-08-25T22:38:47.212Z,1.80
2018-08-25T22:41:14.173Z,1.90
2018-08-25T22:43:41.132Z,1.60
2018-08-25T22:46:08.575Z,2.40
2018-08-25T22:48:35.565Z,2.10
2018-08-25T22:51:02.536Z,2.40
2018-08-25T22:53:29.484Z,2.13
2018-08-25T22:55:56.444Z,2.47
2018-08-25T22:58:23.305Z,2.30
2018-08-25T23:00:50.257Z,2.47
2018-08-25T23:03:17.203Z,1.87
2018-08-25T23:05:45.183Z,2.30
2018-08-25T23:08:13.164Z,2.87
2018-08-25T23:10:40.245Z,2.20
2018-08-25T23:13:07.151Z,1.60
2018-08-25T23:15:34.131Z,2.23
2018-08-25T23:18:01.123Z,2.10
2018-08-25T23:20:30.843Z,1.97
2018-08-25T23:22:58.803Z,2.10
2018-08-25T23:25:25.791Z,2.30
2018-08-25T23:27:57.284Z,2.40
2018-08-25T23:30:28.935Z,2.40
2018-08-25T23:32:56.742Z,2.50
2018-08-25T23:35:24.249Z,2.63
2018-08-25T23:37:51.201Z,2.53
2018-08-25T23:40:18.147Z,2.27
2018-08-25T23:42:45.112Z,2.83
2018-08-25T23:45:13.084Z,2.67
2018-08-25T23:47:43.031Z,2.50
2018-08-25T23:50:10.000Z,2.70
2018-08-25T23:52:37.003Z,2.80
2018-08-25T23:55:06.635Z,2.77
2018-08-25T23:57:33.631Z,3.00
